»·PEaware :: N212MH KVUO-8W5

N212MH :: KVUO-8W5

FLIGHT INFORMATION

Flight Status: Arrived
Operator: Privately registered:
United States
More flights under this callsign
Pilot: Erik A. (17503)
Aircraft: AERMACCHI WARRIOR
(F260)
More flights by this aircraft type
Origin: KVUO Pearson
United States
Destination: 8W5 Apex Airpark
United States
More flights between these airports :: More routes between these airports
Route: BTG V23 MALAY V287 OLM V165 JUVGA
File this flight plan on PilotEdge
Remarks: RWY 26 ODP
Altitude:
(Current/Filed)
8,000ft
Speed:
(Current/Filed)
160kts
Departed: 06-Nov-20 01:31 PM
Arrived: 06-Nov-20 02:19 PM
Distance/Time
Traveled:
122nm/0:47
Distance/Time
To Go:
Arrived

Flight Plot

Page will automatically refresh every two minutes.

Flight plan parsing failed; only flown route is shown


Map Options




Map Legend


Flown Route
Filed Route
Departure Airport
Arrival Airport
Navaid (VOR, NDB)
Fix

Horizontal Profiles

Position Reports

Time Latitude Longitude Heading Altitude Ground
Speed
06-Nov-20 13:04 45.621472 -122.654042 183 26ft 0kts
06-Nov-20 13:05 45.621472 -122.654042 183 26ft 0kts
06-Nov-20 13:06 45.621472 -122.654042 183 26ft 0kts
06-Nov-20 13:07 45.621472 -122.654042 183 26ft 0kts
06-Nov-20 13:08 45.621472 -122.654042 183 26ft 0kts
06-Nov-20 13:09 45.621472 -122.654042 183 26ft 0kts
06-Nov-20 13:10 45.621472 -122.654042 183 26ft 0kts
06-Nov-20 13:12 45.621472 -122.654042 183 26ft 0kts
06-Nov-20 13:13 45.621472 -122.654042 183 26ft 0kts
06-Nov-20 13:14 45.621472 -122.654042 183 26ft 0kts
06-Nov-20 13:15 45.621472 -122.654042 183 26ft 0kts
06-Nov-20 13:16 45.621472 -122.654042 183 26ft 0kts
06-Nov-20 13:17 45.621472 -122.654042 183 26ft 0kts
06-Nov-20 13:18 45.621472 -122.654042 183 26ft 0kts
06-Nov-20 13:19 45.621472 -122.654042 183 26ft 0kts
06-Nov-20 13:20 45.621472 -122.654042 183 26ft 0kts
06-Nov-20 13:21 45.621472 -122.654042 183 26ft 0kts
06-Nov-20 13:22 45.621472 -122.654042 183 26ft 0kts
06-Nov-20 13:23 45.621472 -122.654042 183 26ft 0kts
06-Nov-20 13:24 45.621472 -122.654042 183 26ft 0kts
06-Nov-20 13:25 45.621171 -122.653077 140 25ft 6kts
06-Nov-20 13:26 45.620380 -122.651446 98 25ft 3kts
06-Nov-20 13:27 45.620416 -122.650487 123 25ft 0kts
06-Nov-20 13:28 45.620416 -122.650487 123 25ft 0kts
06-Nov-20 13:29 45.620416 -122.650487 123 25ft 0kts
06-Nov-20 13:29 45.619879 -122.650281 239 25ft 8kts
06-Nov-20 13:31 45.623303 -122.673070 287 480ft 106kts
06-Nov-20 13:31 45.639121 -122.678785 27 1781ft 100kts
06-Nov-20 13:33 45.663476 -122.658308 25 3153ft 116kts
06-Nov-20 13:33 45.684437 -122.642475 25 4284ft 113kts
06-Nov-20 13:35 45.711822 -122.624282 24 5696ft 106kts
06-Nov-20 13:35 45.734350 -122.602247 35 6664ft 114kts
06-Nov-20 13:36 45.762918 -122.596855 341 7663ft 113kts
06-Nov-20 13:37 45.795447 -122.603527 353 8115ft 144kts
06-Nov-20 13:38 45.844872 -122.614549 351 8176ft 165kts
06-Nov-20 13:39 45.891685 -122.629471 349 8067ft 171kts
06-Nov-20 13:40 45.933425 -122.637398 357 7994ft 171kts
06-Nov-20 13:41 45.977668 -122.647334 348 7945ft 171kts
06-Nov-20 13:42 46.026025 -122.663042 344 7948ft 169kts
06-Nov-20 13:43 46.071980 -122.674796 356 8055ft 167kts
06-Nov-20 13:44 46.120064 -122.683971 349 7922ft 179kts
06-Nov-20 13:45 46.168029 -122.696682 353 7839ft 171kts
06-Nov-20 13:46 46.213385 -122.706622 354 7913ft 168kts
06-Nov-20 13:47 46.259525 -122.714462 357 7966ft 166kts
06-Nov-20 13:48 46.303947 -122.730477 342 7983ft 167kts
06-Nov-20 13:49 46.347712 -122.747300 345 7908ft 171kts
06-Nov-20 13:50 46.393548 -122.758411 354 7975ft 166kts
06-Nov-20 13:51 46.440213 -122.764365 358 7934ft 169kts
06-Nov-20 13:52 46.486874 -122.770102 348 7915ft 170kts
06-Nov-20 13:53 46.532747 -122.786061 346 7932ft 169kts
06-Nov-20 13:54 46.578096 -122.804263 348 7941ft 169kts
06-Nov-20 13:55 46.624277 -122.812647 356 7992ft 167kts
06-Nov-20 13:56 46.671211 -122.818019 353 8015ft 167kts
06-Nov-20 13:57 46.719121 -122.832196 345 8009ft 168kts
06-Nov-20 13:58 46.765235 -122.850714 343 8026ft 167kts
06-Nov-20 13:59 46.809647 -122.861928 356 8026ft 166kts
06-Nov-20 14:00 46.857181 -122.870866 350 8048ft 168kts
06-Nov-20 14:01 46.903155 -122.887492 352 8094ft 166kts
06-Nov-20 14:02 46.949894 -122.898203 354 8119ft 167kts
06-Nov-20 14:03 46.996763 -122.898567 8 8133ft 166kts
06-Nov-20 14:04 47.042891 -122.890807 4 8166ft 165kts
06-Nov-20 14:05 47.090390 -122.885868 9 8154ft 165kts
06-Nov-20 14:06 47.136958 -122.876336 5 8147ft 167kts
06-Nov-20 14:07 47.183808 -122.873259 4 8056ft 168kts
06-Nov-20 14:08 47.231251 -122.866454 6 7727ft 179kts
06-Nov-20 14:09 47.283034 -122.858293 10 6286ft 199kts
06-Nov-20 14:10 47.338313 -122.849908 2 4457ft 207kts
06-Nov-20 14:11 47.393963 -122.845014 2 3313ft 190kts
06-Nov-20 14:12 47.441859 -122.824641 16 3438ft 170kts
06-Nov-20 14:13 47.488388 -122.807257 16 3432ft 176kts
06-Nov-20 14:14 47.535412 -122.790222 20 3593ft 170kts
06-Nov-20 14:15 47.579538 -122.760544 23 3216ft 157kts
06-Nov-20 14:16 47.614096 -122.743623 11 2211ft 101kts
06-Nov-20 14:17 47.638464 -122.737577 5 1070ft 87kts
06-Nov-20 14:18 47.658209 -122.732833 7 531ft 23kts
06-Nov-20 14:19 47.657491 -122.731535 80 501ft 0kts
06-Nov-20 14:20 47.657491 -122.731535 80 501ft 0kts
06-Nov-20 14:21 47.657491 -122.731535 80 501ft 0kts
06-Nov-20 14:22 47.657491 -122.731535 80 501ft 0kts
06-Nov-20 14:23 47.657491 -122.731535 80 501ft 0kts
06-Nov-20 14:24 47.657491 -122.731535 80 501ft 0kts
06-Nov-20 14:25 47.657491 -122.731535 80 501ft 0kts
06-Nov-20 14:26 47.657491 -122.731535 80 501ft 0kts
06-Nov-20 14:27 47.657491 -122.731535 80 501ft 0kts
06-Nov-20 14:28 47.657491 -122.731535 80 501ft 0kts
06-Nov-20 14:29 47.657491 -122.731535 80 501ft 0kts
06-Nov-20 14:30 47.657491 -122.731535 80 501ft 0kts
06-Nov-20 14:31 47.657491 -122.731535 80 501ft 0kts
06-Nov-20 14:32 47.657491 -122.731535 80 501ft 0kts

Navigation Log

Ident Type
Flight plan parsing failed, navigation log unavailable